sensor_id;sensor_type;location;lat;lon;timestamp;pressure;altitude;pressure_sealevel;temperature;humidity
55066;BME280;40964;42.114;24.220;2022-08-20T00:00:52;97389.78;;;24.55;53.43
55066;BME280;40964;42.114;24.220;2022-08-20T00:03:33;97398.44;;;24.52;53.57
55066;BME280;40964;42.114;24.220;2022-08-20T00:08:31;97390.38;;;24.43;54.34
55066;BME280;40964;42.114;24.220;2022-08-20T00:10:58;97394.66;;;24.44;53.94
55066;BME280;40964;42.114;24.220;2022-08-20T00:13:34;97398.16;;;24.45;54.47
55066;BME280;40964;42.114;24.220;2022-08-20T00:16:00;97401.31;;;24.47;54.39
55066;BME280;40964;42.114;24.220;2022-08-20T00:18:26;97405.13;;;24.46;53.90
55066;BME280;40964;42.114;24.220;2022-08-20T00:20:54;97403.34;;;24.41;54.36
55066;BME280;40964;42.114;24.220;2022-08-20T00:23:20;97399.09;;;24.40;54.40
55066;BME280;40964;42.114;24.220;2022-08-20T00:25:47;97399.56;;;24.42;54.46
55066;BME280;40964;42.114;24.220;2022-08-20T00:28:14;97400.19;;;24.39;54.47
55066;BME280;40964;42.114;24.220;2022-08-20T00:30:42;97396.09;;;24.42;54.10
55066;BME280;40964;42.114;24.220;2022-08-20T00:33:11;97397.66;;;24.43;54.66
55066;BME280;40964;42.114;24.220;2022-08-20T00:35:42;97397.03;;;24.37;54.72
55066;BME280;40964;42.114;24.220;2022-08-20T00:38:08;97391.66;;;24.37;54.99
55066;BME280;40964;42.114;24.220;2022-08-20T00:40:46;97396.09;;;24.42;54.88
55066;BME280;40964;42.114;24.220;2022-08-20T00:43:41;97382.63;;;24.33;54.83
55066;BME280;40964;42.114;24.220;2022-08-20T00:46:18;97385.28;;;24.24;55.62
55066;BME280;40964;42.114;24.220;2022-08-20T00:48:46;97378.97;;;24.20;55.54
55066;BME280;40964;42.114;24.220;2022-08-20T00:51:50;97377.06;;;24.12;56.05
55066;BME280;40964;42.114;24.220;2022-08-20T01:00:26;97377.19;;;23.98;56.08
55066;BME280;40964;42.114;24.220;2022-08-20T01:02:53;97382.84;;;23.88;56.35
55066;BME280;40964;42.114;24.220;2022-08-20T01:05:19;97379.03;;;23.81;56.40
55066;BME280;40964;42.114;24.220;2022-08-20T01:07:48;97382.69;;;23.76;56.65
55066;BME280;40964;42.114;24.220;2022-08-20T01:10:29;97384.38;;;23.72;56.97
55066;BME280;40964;42.114;24.220;2022-08-20T01:12:57;97382.53;;;23.72;56.83
55066;BME280;40964;42.114;24.220;2022-08-20T01:15:26;97387.69;;;23.69;57.16
55066;BME280;40964;42.114;24.220;2022-08-20T01:17:57;97387.53;;;23.65;57.64
55066;BME280;40964;42.114;24.220;2022-08-20T01:20:26;97378.38;;;23.66;57.33
55066;BME280;40964;42.114;24.220;2022-08-20T01:25:45;97374.66;;;23.54;57.99
55066;BME280;40964;42.114;24.220;2022-08-20T01:28:13;97374.19;;;23.51;58.13
55066;BME280;40964;42.114;24.220;2022-08-20T01:30:41;97372.34;;;23.61;58.61
55066;BME280;40964;42.114;24.220;2022-08-20T01:33:07;97368.88;;;23.60;58.47
55066;BME280;40964;42.114;24.220;2022-08-20T01:35:40;97363.06;;;23.67;57.88
55066;BME280;40964;42.114;24.220;2022-08-20T01:38:06;97356.06;;;23.57;57.55
55066;BME280;40964;42.114;24.220;2022-08-20T01:43:23;97374.97;;;23.52;58.53
55066;BME280;40964;42.114;24.220;2022-08-20T01:45:50;97376.72;;;23.48;58.73
55066;BME280;40964;42.114;24.220;2022-08-20T01:48:16;97369.88;;;23.42;58.68
55066;BME280;40964;42.114;24.220;2022-08-20T01:50:59;97363.09;;;23.44;59.05
55066;BME280;40964;42.114;24.220;2022-08-20T01:53:38;97356.16;;;23.43;59.00
55066;BME280;40964;42.114;24.220;2022-08-20T01:56:07;97361.88;;;23.50;58.80
55066;BME280;40964;42.114;24.220;2022-08-20T01:58:35;97360.97;;;23.55;58.77
55066;BME280;40964;42.114;24.220;2022-08-20T02:01:02;97358.28;;;23.55;58.67
55066;BME280;40964;42.114;24.220;2022-08-20T02:03:28;97357.59;;;23.49;59.08
55066;BME280;40964;42.114;24.220;2022-08-20T02:05:57;97351.13;;;23.50;58.65
55066;BME280;40964;42.114;24.220;2022-08-20T02:08:23;97356.81;;;23.49;59.22
55066;BME280;40964;42.114;24.220;2022-08-20T02:10:48;97346.88;;;23.49;59.12
55066;BME280;40964;42.114;24.220;2022-08-20T02:13:14;97346.09;;;23.49;59.10
55066;BME280;40964;42.114;24.220;2022-08-20T02:15:40;97342.25;;;23.41;59.01
55066;BME280;40964;42.114;24.220;2022-08-20T02:18:09;97347.75;;;23.36;59.07
55066;BME280;40964;42.114;24.220;2022-08-20T02:20:35;97343.22;;;23.37;58.99
55066;BME280;40964;42.114;24.220;2022-08-20T02:23:02;97345.25;;;23.40;58.87
55066;BME280;40964;42.114;24.220;2022-08-20T02:25:31;97348.38;;;23.33;58.89
55066;BME280;40964;42.114;24.220;2022-08-20T02:27:58;97343.81;;;23.34;59.22
55066;BME280;40964;42.114;24.220;2022-08-20T02:30:34;97346.94;;;23.27;58.98
55066;BME280;40964;42.114;24.220;2022-08-20T02:33:01;97346.94;;;23.27;59.00
55066;BME280;40964;42.114;24.220;2022-08-20T02:35:28;97340.78;;;23.27;59.14
55066;BME280;40964;42.114;24.220;2022-08-20T02:37:54;97344.56;;;23.26;58.88
55066;BME280;40964;42.114;24.220;2022-08-20T02:40:23;97337.25;;;23.17;59.41
55066;BME280;40964;42.114;24.220;2022-08-20T02:42:53;97332.16;;;23.07;59.44
55066;BME280;40964;42.114;24.220;2022-08-20T02:45:20;97331.69;;;23.05;60.34
55066;BME280;40964;42.114;24.220;2022-08-20T02:47:46;97320.41;;;22.86;59.82
55066;BME280;40964;42.114;24.220;2022-08-20T02:50:15;97336.34;;;22.91;59.84
55066;BME280;40964;42.114;24.220;2022-08-20T02:52:42;97336.34;;;22.91;60.08
55066;BME280;40964;42.114;24.220;2022-08-20T02:55:09;97337.75;;;22.88;60.46
55066;BME280;40964;42.114;24.220;2022-08-20T02:57:35;97338.66;;;22.84;60.60
55066;BME280;40964;42.114;24.220;2022-08-20T03:00:00;97334.41;;;22.83;60.31
55066;BME280;40964;42.114;24.220;2022-08-20T03:02:27;97332.78;;;22.82;61.60
55066;BME280;40964;42.114;24.220;2022-08-20T03:04:53;97336.53;;;22.72;62.18
55066;BME280;40964;42.114;24.220;2022-08-20T03:07:18;97334.94;;;22.71;62.16
55066;BME280;40964;42.114;24.220;2022-08-20T03:09:44;97342.06;;;22.53;63.68
55066;BME280;40964;42.114;24.220;2022-08-20T03:12:09;97339.88;;;22.33;64.46
55066;BME280;40964;42.114;24.220;2022-08-20T03:14:35;97337.81;;;22.30;64.42
55066;BME280;40964;42.114;24.220;2022-08-20T03:17:01;97343.44;;;22.28;65.14
55066;BME280;40964;42.114;24.220;2022-08-20T03:19:27;97331.22;;;22.14;64.88
55066;BME280;40964;42.114;24.220;2022-08-20T03:21:53;97339.13;;;22.19;64.73
55066;BME280;40964;42.114;24.220;2022-08-20T03:24:21;97337.53;;;22.18;64.92
55066;BME280;40964;42.114;24.220;2022-08-20T03:26:47;97336.16;;;22.20;64.94
55066;BME280;40964;42.114;24.220;2022-08-20T03:29:12;97339.91;;;22.19;64.04
55066;BME280;40964;42.114;24.220;2022-08-20T03:31:38;97351.31;;;22.25;63.40
55066;BME280;40964;42.114;24.220;2022-08-20T03:34:04;97341.22;;;22.22;63.45
55066;BME280;40964;42.114;24.220;2022-08-20T03:36:29;97345.84;;;22.30;63.08
55066;BME280;40964;42.114;24.220;2022-08-20T03:38:57;97350.13;;;22.31;63.91
55066;BME280;40964;42.114;24.220;2022-08-20T03:41:23;97343.66;;;22.32;63.73
55066;BME280;40964;42.114;24.220;2022-08-20T03:43:49;97349.91;;;22.27;63.87
55066;BME280;40964;42.114;24.220;2022-08-20T03:46:15;97353.19;;;22.24;64.62
55066;BME280;40964;42.114;24.220;2022-08-20T03:48:40;97359.59;;;22.15;65.02
55066;BME280;40964;42.114;24.220;2022-08-20T03:51:06;97359.88;;;22.13;65.13
55066;BME280;40964;42.114;24.220;2022-08-20T03:53:32;97361.56;;;22.09;65.70
55066;BME280;40964;42.114;24.220;2022-08-20T03:55:59;97361.09;;;22.07;65.90
55066;BME280;40964;42.114;24.220;2022-08-20T03:58:27;97360.25;;;22.06;64.89
55066;BME280;40964;42.114;24.220;2022-08-20T04:00:53;97365.34;;;22.08;65.05
55066;BME280;40964;42.114;24.220;2022-08-20T04:03:21;97365.34;;;22.08;65.13
55066;BME280;40964;42.114;24.220;2022-08-20T04:05:47;97368.50;;;22.10;66.74
55066;BME280;40964;42.114;24.220;2022-08-20T04:08:19;97367.44;;;22.11;66.98
55066;BME280;40964;42.114;24.220;2022-08-20T04:10:46;97360.19;;;22.12;66.18
55066;BME280;40964;42.114;24.220;2022-08-20T04:13:16;97363.34;;;22.14;67.11
55066;BME280;40964;42.114;24.220;2022-08-20T04:15:43;97367.00;;;22.18;67.28
55066;BME280;40964;42.114;24.220;2022-08-20T04:18:10;97377.22;;;22.16;68.14
55066;BME280;40964;42.114;24.220;2022-08-20T04:20:39;97371.97;;;22.10;66.16
55066;BME280;40964;42.114;24.220;2022-08-20T04:23:05;97366.81;;;22.14;66.50
55066;BME280;40964;42.114;24.220;2022-08-20T04:25:33;97375.72;;;22.23;66.73
55066;BME280;40964;42.114;24.220;2022-08-20T04:28:00;97376.91;;;22.31;64.88
55066;BME280;40964;42.114;24.220;2022-08-20T04:30:27;97377.09;;;22.34;65.40
55066;BME280;40964;42.114;24.220;2022-08-20T04:32:53;97368.16;;;22.39;65.58
55066;BME280;40964;42.114;24.220;2022-08-20T04:35:21;97371.94;;;22.38;65.78
55066;BME280;40964;42.114;24.220;2022-08-20T04:37:55;97380.53;;;22.49;65.55
55066;BME280;40964;42.114;24.220;2022-08-20T04:40:21;97373.72;;;22.65;63.94
55066;BME280;40964;42.114;24.220;2022-08-20T04:43:05;97375.03;;;22.76;64.44
55066;BME280;40964;42.114;24.220;2022-08-20T04:45:32;97368.25;;;22.79;65.14
55066;BME280;40964;42.114;24.220;2022-08-20T04:48:01;97356.91;;;22.82;65.40
55066;BME280;40964;42.114;24.220;2022-08-20T04:50:35;97382.53;;;23.10;64.95
55066;BME280;40964;42.114;24.220;2022-08-20T04:53:02;97370.91;;;23.23;65.08
55066;BME280;40964;42.114;24.220;2022-08-20T04:55:29;97374.44;;;23.33;65.28
55066;BME280;40964;42.114;24.220;2022-08-20T04:58:00;97374.47;;;23.41;63.01
55066;BME280;40964;42.114;24.220;2022-08-20T05:00:28;97378.78;;;23.51;62.81
55066;BME280;40964;42.114;24.220;2022-08-20T05:02:55;97371.38;;;23.57;62.79
55066;BME280;40964;42.114;24.220;2022-08-20T05:05:21;97372.06;;;23.71;62.65
55066;BME280;40964;42.114;24.220;2022-08-20T05:07:47;97370.50;;;23.78;61.53
55066;BME280;40964;42.114;24.220;2022-08-20T05:10:15;97370.22;;;23.97;61.90
55066;BME280;40964;42.114;24.220;2022-08-20T05:12:42;97377.53;;;24.05;60.93
55066;BME280;40964;42.114;24.220;2022-08-20T05:15:09;97378.50;;;24.27;59.70
55066;BME280;40964;42.114;24.220;2022-08-20T05:17:36;97384.72;;;24.45;58.78
55066;BME280;40964;42.114;24.220;2022-08-20T05:20:03;97376.47;;;24.41;58.62
55066;BME280;40964;42.114;24.220;2022-08-20T05:22:29;97376.66;;;24.36;57.08
55066;BME280;40964;42.114;24.220;2022-08-20T05:24:54;97369.66;;;24.52;56.44
55066;BME280;40964;42.114;24.220;2022-08-20T05:27:21;97372.84;;;24.63;58.53
55066;BME280;40964;42.114;24.220;2022-08-20T05:30:08;97380.25;;;24.83;56.59
55066;BME280;40964;42.114;24.220;2022-08-20T05:32:35;97380.38;;;24.87;57.37
55066;BME280;40964;42.114;24.220;2022-08-20T05:35:04;97375.34;;;25.03;56.63
55066;BME280;40964;42.114;24.220;2022-08-20T05:37:29;97376.75;;;24.91;55.81
55066;BME280;40964;42.114;24.220;2022-08-20T05:39:56;97373.41;;;24.95;55.49
55066;BME280;40964;42.114;24.220;2022-08-20T05:42:21;97372.16;;;24.92;55.88
55066;BME280;40964;42.114;24.220;2022-08-20T05:44:47;97369.78;;;24.99;55.23
55066;BME280;40964;42.114;24.220;2022-08-20T05:47:14;97369.94;;;24.94;56.00
55066;BME280;40964;42.114;24.220;2022-08-20T05:49:39;97369.94;;;25.03;56.24
55066;BME280;40964;42.114;24.220;2022-08-20T05:52:05;97369.47;;;25.09;56.18
55066;BME280;40964;42.114;24.220;2022-08-20T05:54:32;97366.25;;;25.16;57.00
55066;BME280;40964;42.114;24.220;2022-08-20T05:56:57;97361.88;;;24.94;56.24
55066;BME280;40964;42.114;24.220;2022-08-20T05:59:24;97370.09;;;25.06;55.96
55066;BME280;40964;42.114;24.220;2022-08-20T06:01:51;97369.09;;;25.28;55.65
55066;BME280;40964;42.114;24.220;2022-08-20T06:04:16;97366.53;;;25.32;54.13
55066;BME280;40964;42.114;24.220;2022-08-20T06:07:02;97361.78;;;25.37;55.49
55066;BME280;40964;42.114;24.220;2022-08-20T06:09:29;97370.69;;;25.21;54.97
55066;BME280;40964;42.114;24.220;2022-08-20T06:11:55;97369.72;;;25.25;55.29
55066;BME280;40964;42.114;24.220;2022-08-20T06:14:20;97368.81;;;25.51;54.61
55066;BME280;40964;42.114;24.220;2022-08-20T06:16:46;97369.00;;;25.54;55.04
55066;BME280;40964;42.114;24.220;2022-08-20T06:19:12;97363.41;;;25.59;53.52
55066;BME280;40964;42.114;24.220;2022-08-20T06:21:38;97368.41;;;25.78;54.33
55066;BME280;40964;42.114;24.220;2022-08-20T06:24:04;97370.22;;;25.95;53.81
55066;BME280;40964;42.114;24.220;2022-08-20T06:26:31;97363.00;;;26.08;54.97
55066;BME280;40964;42.114;24.220;2022-08-20T06:28:59;97361.56;;;26.31;53.85
55066;BME280;40964;42.114;24.220;2022-08-20T06:31:25;97362.78;;;26.42;52.94
55066;BME280;40964;42.114;24.220;2022-08-20T06:33:51;97367.94;;;26.68;53.19
55066;BME280;40964;42.114;24.220;2022-08-20T06:36:17;97370.25;;;26.91;51.11
55066;BME280;40964;42.114;24.220;2022-08-20T06:38:42;97382.47;;;26.76;50.91
55066;BME280;40964;42.114;24.220;2022-08-20T06:41:09;97378.53;;;26.73;51.40
55066;BME280;40964;42.114;24.220;2022-08-20T06:43:35;97372.78;;;26.75;51.27
55066;BME280;40964;42.114;24.220;2022-08-20T06:46:00;97379.25;;;26.95;50.99
55066;BME280;40964;42.114;24.220;2022-08-20T06:48:26;97375.53;;;27.20;52.45
55066;BME280;40964;42.114;24.220;2022-08-20T06:50:52;97379.41;;;27.43;50.33
55066;BME280;40964;42.114;24.220;2022-08-20T06:53:19;97380.88;;;27.65;48.43
55066;BME280;40964;42.114;24.220;2022-08-20T06:55:48;97381.78;;;27.94;49.31
55066;BME280;40964;42.114;24.220;2022-08-20T06:58:14;97382.31;;;28.12;48.06
55066;BME280;40964;42.114;24.220;2022-08-20T07:00:42;97384.78;;;28.29;47.78
55066;BME280;40964;42.114;24.220;2022-08-20T07:03:08;97375.75;;;28.37;47.82
55066;BME280;40964;42.114;24.220;2022-08-20T07:05:36;97373.97;;;28.41;47.85
55066;BME280;40964;42.114;24.220;2022-08-20T07:08:03;97376.22;;;28.27;47.08
55066;BME280;40964;42.114;24.220;2022-08-20T07:10:29;97368.22;;;28.18;47.87
55066;BME280;40964;42.114;24.220;2022-08-20T07:12:55;97371.59;;;28.27;46.86
55066;BME280;40964;42.114;24.220;2022-08-20T07:15:22;97367.78;;;28.28;47.08
55066;BME280;40964;42.114;24.220;2022-08-20T07:18:01;97375.19;;;28.44;47.26
55066;BME280;40964;42.114;24.220;2022-08-20T07:20:28;97380.94;;;28.70;47.94
55066;BME280;40964;42.114;24.220;2022-08-20T07:22:54;97373.63;;;28.71;46.22
55066;BME280;40964;42.114;24.220;2022-08-20T07:25:20;97370.47;;;28.97;47.80
55066;BME280;40964;42.114;24.220;2022-08-20T07:27:47;97364.34;;;29.00;45.26
55066;BME280;40964;42.114;24.220;2022-08-20T07:30:17;97370.94;;;29.15;44.48
55066;BME280;40964;42.114;24.220;2022-08-20T07:33:02;97356.94;;;29.28;44.79
55066;BME280;40964;42.114;24.220;2022-08-20T07:35:28;97357.56;;;29.37;44.22
55066;BME280;40964;42.114;24.220;2022-08-20T07:37:54;97348.44;;;29.58;43.54
55066;BME280;40964;42.114;24.220;2022-08-20T07:40:23;97355.09;;;29.95;44.25
55066;BME280;40964;42.114;24.220;2022-08-20T07:42:55;97362.34;;;29.91;42.95
55066;BME280;40964;42.114;24.220;2022-08-20T07:45:22;97345.66;;;29.89;42.96
55066;BME280;40964;42.114;24.220;2022-08-20T07:47:48;97345.09;;;30.00;42.95
55066;BME280;40964;42.114;24.220;2022-08-20T07:50:17;97348.59;;;30.00;42.48
55066;BME280;40964;42.114;24.220;2022-08-20T07:52:44;97350.25;;;30.05;42.93
55066;BME280;40964;42.114;24.220;2022-08-20T07:55:12;97343.16;;;30.35;41.87
55066;BME280;40964;42.114;24.220;2022-08-20T07:57:40;97352.53;;;30.57;42.17
55066;BME280;40964;42.114;24.220;2022-08-20T08:00:07;97340.13;;;30.98;40.31
55066;BME280;40964;42.114;24.220;2022-08-20T08:02:34;97334.09;;;31.28;41.44
55066;BME280;40964;42.114;24.220;2022-08-20T08:05:00;97326.47;;;31.37;41.21
55066;BME280;40964;42.114;24.220;2022-08-20T08:07:27;97326.00;;;31.58;41.33
55066;BME280;40964;42.114;24.220;2022-08-20T08:09:53;97325.25;;;31.84;41.97
55066;BME280;40964;42.114;24.220;2022-08-20T08:12:20;97327.22;;;31.87;39.70
55066;BME280;40964;42.114;24.220;2022-08-20T08:14:47;97320.72;;;31.69;39.22
55066;BME280;40964;42.114;24.220;2022-08-20T08:17:14;97321.19;;;31.48;39.75
55066;BME280;40964;42.114;24.220;2022-08-20T08:19:45;97323.59;;;31.53;39.76
55066;BME280;40964;42.114;24.220;2022-08-20T08:22:16;97310.44;;;31.55;39.27
55066;BME280;40964;42.114;24.220;2022-08-20T08:24:43;97304.66;;;31.60;40.60
55066;BME280;40964;42.114;24.220;2022-08-20T08:27:12;97306.19;;;31.57;38.77
55066;BME280;40964;42.114;24.220;2022-08-20T08:29:38;97298.72;;;31.77;39.67
55066;BME280;40964;42.114;24.220;2022-08-20T08:32:05;97298.97;;;31.95;39.15
55066;BME280;40964;42.114;24.220;2022-08-20T08:34:32;97287.34;;;31.98;38.77
55066;BME280;40964;42.114;24.220;2022-08-20T08:36:58;97290.91;;;32.02;40.18
55066;BME280;40964;42.114;24.220;2022-08-20T08:39:27;97273.66;;;31.91;39.32
55066;BME280;40964;42.114;24.220;2022-08-20T08:41:53;97285.28;;;31.88;40.53
55066;BME280;40964;42.114;24.220;2022-08-20T08:44:30;97283.91;;;31.75;39.93
55066;BME280;40964;42.114;24.220;2022-08-20T08:47:06;97284.44;;;31.84;39.83
55066;BME280;40964;42.114;24.220;2022-08-20T08:49:38;97279.00;;;31.84;39.46
55066;BME280;40964;42.114;24.220;2022-08-20T08:52:08;97279.03;;;31.87;39.34
55066;BME280;40964;42.114;24.220;2022-08-20T08:54:37;97276.16;;;32.03;40.45
55066;BME280;40964;42.114;24.220;2022-08-20T08:57:04;97269.28;;;32.16;39.27
55066;BME280;40964;42.114;24.220;2022-08-20T08:59:32;97269.78;;;31.92;39.80
55066;BME280;40964;42.114;24.220;2022-08-20T09:01:58;97266.03;;;31.74;40.42
55066;BME280;40964;42.114;24.220;2022-08-20T09:04:37;97268.72;;;32.00;40.19
55066;BME280;40964;42.114;24.220;2022-08-20T09:07:06;97269.03;;;31.95;39.72
55066;BME280;40964;42.114;24.220;2022-08-20T09:09:37;97265.84;;;32.19;38.26
55066;BME280;40964;42.114;24.220;2022-08-20T09:12:12;97261.13;;;32.16;39.63
55066;BME280;40964;42.114;24.220;2022-08-20T09:14:38;97266.28;;;32.25;38.43
55066;BME280;40964;42.114;24.220;2022-08-20T09:17:04;97261.84;;;32.10;38.33
55066;BME280;40964;42.114;24.220;2022-08-20T09:19:30;97257.09;;;32.33;39.42
55066;BME280;40964;42.114;24.220;2022-08-20T09:21:56;97250.31;;;32.54;38.12
55066;BME280;40964;42.114;24.220;2022-08-20T09:24:22;97254.16;;;32.53;37.22
55066;BME280;40964;42.114;24.220;2022-08-20T09:26:48;97246.56;;;32.32;37.25
55066;BME280;40964;42.114;24.220;2022-08-20T09:29:13;97248.22;;;32.40;37.93
55066;BME280;40964;42.114;24.220;2022-08-20T09:31:39;97245.75;;;32.65;38.10
55066;BME280;40964;42.114;24.220;2022-08-20T09:34:04;97245.81;;;32.72;38.21
55066;BME280;40964;42.114;24.220;2022-08-20T09:36:30;97241.94;;;32.73;36.59
55066;BME280;40964;42.114;24.220;2022-08-20T09:38:56;97232.75;;;32.88;36.74
55066;BME280;40964;42.114;24.220;2022-08-20T09:41:21;97239.88;;;33.00;36.51
55066;BME280;40964;42.114;24.220;2022-08-20T09:43:47;97225.47;;;33.03;37.52
55066;BME280;40964;42.114;24.220;2022-08-20T09:46:12;97230.66;;;33.19;36.72
55066;BME280;40964;42.114;24.220;2022-08-20T09:48:38;97224.63;;;32.95;36.60
55066;BME280;40964;42.114;24.220;2022-08-20T09:51:03;97227.63;;;32.83;36.97
55066;BME280;40964;42.114;24.220;2022-08-20T09:53:29;97218.22;;;33.25;39.67
55066;BME280;40964;42.114;24.220;2022-08-20T09:55:56;97219.31;;;33.10;36.46
55066;BME280;40964;42.114;24.220;2022-08-20T09:58:46;97219.91;;;33.37;36.59
55066;BME280;40964;42.114;24.220;2022-08-20T10:01:14;97218.38;;;33.43;36.16
55066;BME280;40964;42.114;24.220;2022-08-20T10:03:42;97214.00;;;33.31;37.57
55066;BME280;40964;42.114;24.220;2022-08-20T10:06:07;97210.50;;;33.34;35.87
55066;BME280;40964;42.114;24.220;2022-08-20T10:08:35;97218.41;;;33.46;35.88
55066;BME280;40964;42.114;24.220;2022-08-20T10:11:00;97212.34;;;33.81;36.56
55066;BME280;40964;42.114;24.220;2022-08-20T10:13:26;97212.88;;;34.12;36.58
55066;BME280;40964;42.114;24.220;2022-08-20T10:15:51;97207.00;;;34.13;34.93
55066;BME280;40964;42.114;24.220;2022-08-20T10:18:17;97204.56;;;33.83;34.83
55066;BME280;40964;42.114;24.220;2022-08-20T10:20:42;97204.00;;;33.49;34.59
55066;BME280;40964;42.114;24.220;2022-08-20T10:23:08;97195.72;;;33.35;35.58
55066;BME280;40964;42.114;24.220;2022-08-20T10:25:33;97199.09;;;33.87;36.03
55066;BME280;40964;42.114;24.220;2022-08-20T10:27:59;97199.56;;;33.93;34.82
55066;BME280;40964;42.114;24.220;2022-08-20T10:30:25;97198.66;;;33.71;34.93
55066;BME280;40964;42.114;24.220;2022-08-20T10:32:50;97191.56;;;33.55;35.96
55066;BME280;40964;42.114;24.220;2022-08-20T10:35:16;97193.19;;;33.64;35.17
55066;BME280;40964;42.114;24.220;2022-08-20T10:37:42;97182.72;;;33.87;34.91
55066;BME280;40964;42.114;24.220;2022-08-20T10:40:09;97180.44;;;33.93;35.57
55066;BME280;40964;42.114;24.220;2022-08-20T10:42:35;97180.13;;;34.19;34.23
55066;BME280;40964;42.114;24.220;2022-08-20T10:45:00;97172.31;;;34.14;34.66
55066;BME280;40964;42.114;24.220;2022-08-20T10:47:29;97175.06;;;34.18;33.97
55066;BME280;40964;42.114;24.220;2022-08-20T10:49:57;97171.94;;;34.23;33.31
55066;BME280;40964;42.114;24.220;2022-08-20T10:52:23;97164.94;;;34.22;32.74
55066;BME280;40964;42.114;24.220;2022-08-20T10:54:49;97161.03;;;34.23;33.59
55066;BME280;40964;42.114;24.220;2022-08-20T10:57:20;97161.84;;;34.41;34.19
55066;BME280;40964;42.114;24.220;2022-08-20T10:59:48;97157.13;;;34.17;33.62
55066;BME280;40964;42.114;24.220;2022-08-20T11:02:15;97153.22;;;34.07;34.09
55066;BME280;40964;42.114;24.220;2022-08-20T11:04:41;97156.38;;;34.34;32.88
55066;BME280;40964;42.114;24.220;2022-08-20T11:09:36;97153.69;;;34.52;34.58
55066;BME280;40964;42.114;24.220;2022-08-20T11:12:02;97147.03;;;34.85;33.79
55066;BME280;40964;42.114;24.220;2022-08-20T11:14:28;97151.34;;;34.79;33.69
55066;BME280;40964;42.114;24.220;2022-08-20T11:16:53;97150.59;;;34.60;33.99
55066;BME280;40964;42.114;24.220;2022-08-20T11:19:19;97150.16;;;34.48;34.04
55066;BME280;40964;42.114;24.220;2022-08-20T11:21:47;97144.34;;;34.70;34.31
55066;BME280;40964;42.114;24.220;2022-08-20T11:24:13;97155.63;;;34.94;33.50
55066;BME280;40964;42.114;24.220;2022-08-20T11:26:39;97136.09;;;35.10;32.25
55066;BME280;40964;42.114;24.220;2022-08-20T11:29:04;97129.00;;;35.37;33.51
55066;BME280;40964;42.114;24.220;2022-08-20T11:31:30;97138.84;;;35.10;32.48
55066;BME280;40964;42.114;24.220;2022-08-20T11:33:55;97129.88;;;34.95;32.32
55066;BME280;40964;42.114;24.220;2022-08-20T11:36:21;97135.66;;;35.22;33.62
55066;BME280;40964;42.114;24.220;2022-08-20T11:38:51;97132.56;;;35.20;32.75
55066;BME280;40964;42.114;24.220;2022-08-20T11:41:16;97128.31;;;34.97;32.99
55066;BME280;40964;42.114;24.220;2022-08-20T11:43:42;97129.47;;;34.25;33.36
55066;BME280;40964;42.114;24.220;2022-08-20T11:46:08;97114.88;;;33.78;34.06
55066;BME280;40964;42.114;24.220;2022-08-20T11:48:33;97119.59;;;33.81;34.33
55066;BME280;40964;42.114;24.220;2022-08-20T11:50:59;97114.38;;;33.41;35.19
55066;BME280;40964;42.114;24.220;2022-08-20T11:53:24;97120.13;;;33.32;35.54
55066;BME280;40964;42.114;24.220;2022-08-20T11:55:50;97115.03;;;33.16;34.89
55066;BME280;40964;42.114;24.220;2022-08-20T11:58:16;97126.59;;;33.02;36.00
55066;BME280;40964;42.114;24.220;2022-08-20T12:00:42;97125.72;;;32.88;35.99
55066;BME280;40964;42.114;24.220;2022-08-20T12:03:08;97123.03;;;32.91;36.79
55066;BME280;40964;42.114;24.220;2022-08-20T12:05:34;97111.59;;;32.71;37.16
55066;BME280;40964;42.114;24.220;2022-08-20T12:08:00;97124.59;;;32.44;37.96
55066;BME280;40964;42.114;24.220;2022-08-20T12:10:27;97118.41;;;32.51;38.12
55066;BME280;40964;42.114;24.220;2022-08-20T12:12:53;97112.59;;;32.49;37.89
55066;BME280;40964;42.114;24.220;2022-08-20T12:15:19;97125.75;;;32.43;37.70
55066;BME280;40964;42.114;24.220;2022-08-20T12:17:45;97131.25;;;32.10;37.99
55066;BME280;40964;42.114;24.220;2022-08-20T12:20:12;97121.19;;;31.77;39.53
55066;BME280;40964;42.114;24.220;2022-08-20T12:22:38;97127.94;;;31.60;39.55
55066;BME280;40964;42.114;24.220;2022-08-20T12:25:05;97125.38;;;31.41;40.79
55066;BME280;40964;42.114;24.220;2022-08-20T12:27:32;97122.81;;;31.21;40.57
55066;BME280;40964;42.114;24.220;2022-08-20T12:30:01;97102.69;;;30.99;40.74
55066;BME280;40964;42.114;24.220;2022-08-20T12:32:29;97130.34;;;31.08;40.53
55066;BME280;40964;42.114;24.220;2022-08-20T12:34:56;97119.75;;;31.00;41.39
55066;BME280;40964;42.114;24.220;2022-08-20T12:37:24;97115.03;;;30.93;41.07
55066;BME280;40964;42.114;24.220;2022-08-20T12:39:52;97109.06;;;30.84;42.16
55066;BME280;40964;42.114;24.220;2022-08-20T12:42:19;97112.03;;;30.75;41.90
55066;BME280;40964;42.114;24.220;2022-08-20T12:44:44;97101.13;;;30.72;42.36
55066;BME280;40964;42.114;24.220;2022-08-20T12:47:14;97098.88;;;30.77;42.87
55066;BME280;40964;42.114;24.220;2022-08-20T12:49:42;97095.38;;;30.77;42.39
55066;BME280;40964;42.114;24.220;2022-08-20T12:52:10;97089.88;;;30.73;42.65
55066;BME280;40964;42.114;24.220;2022-08-20T12:54:36;97095.06;;;30.82;42.29
55066;BME280;40964;42.114;24.220;2022-08-20T12:57:03;97094.66;;;30.80;42.51
55066;BME280;40964;42.114;24.220;2022-08-20T12:59:29;97089.28;;;30.84;43.61
55066;BME280;40964;42.114;24.220;2022-08-20T13:01:54;97086.25;;;30.89;43.71
55066;BME280;40964;42.114;24.220;2022-08-20T13:04:20;97071.34;;;30.79;43.36
55066;BME280;40964;42.114;24.220;2022-08-20T13:06:46;97064.50;;;30.89;43.71
55066;BME280;40964;42.114;24.220;2022-08-20T13:09:13;97074.84;;;31.06;43.02